createdAt,value
2022-12-04T00:04:11.156Z,15.00
2022-12-04T00:06:37.653Z,16.00
2022-12-04T00:09:04.130Z,16.00
2022-12-04T00:11:30.598Z,18.00
2022-12-04T00:14:01.450Z,14.50
2022-12-04T00:16:32.172Z,14.00
2022-12-04T00:18:59.895Z,16.33
2022-12-04T00:21:27.275Z,15.00
2022-12-04T00:23:54.616Z,12.33
2022-12-04T00:26:22.013Z,16.00
2022-12-04T00:28:49.382Z,11.67
2022-12-04T00:31:16.860Z,15.00
2022-12-04T00:33:44.275Z,14.33
2022-12-04T00:36:10.724Z,14.00
2022-12-04T00:38:38.097Z,15.67
2022-12-04T00:41:04.567Z,14.50
2022-12-04T00:43:31.015Z,16.00
2022-12-04T00:45:58.464Z,13.33
2022-12-04T00:48:24.989Z,15.00
2022-12-04T00:50:52.356Z,14.33
2022-12-04T00:53:19.722Z,13.33
2022-12-04T00:55:47.154Z,14.00
2022-12-04T00:58:13.607Z,15.00
2022-12-04T01:00:41.021Z,14.67
2022-12-04T01:03:07.554Z,14.50
2022-12-04T01:05:35.004Z,14.00
2022-12-04T01:08:02.509Z,12.00
2022-12-04T01:10:29.951Z,16.33
2022-12-04T01:12:57.317Z,15.00
2022-12-04T01:15:24.676Z,14.67
2022-12-04T01:17:51.127Z,15.00
2022-12-04T01:20:18.546Z,16.00
2022-12-04T01:22:45.907Z,13.67
2022-12-04T01:25:12.320Z,13.00
2022-12-04T01:27:38.763Z,14.00
2022-12-04T01:30:05.251Z,15.00
2022-12-04T01:32:32.654Z,13.67
2022-12-04T01:37:44.337Z,15.67
2022-12-04T01:40:11.700Z,15.00
2022-12-04T01:42:39.055Z,15.00
2022-12-04T01:45:06.472Z,13.00
2022-12-04T01:47:32.911Z,15.00
2022-12-04T01:52:44.989Z,14.33
2022-12-04T01:55:11.428Z,13.00
2022-12-04T01:57:37.879Z,14.50
2022-12-04T02:00:05.297Z,15.00
2022-12-04T02:02:31.799Z,13.00
2022-12-04T02:07:42.493Z,14.00
2022-12-04T02:10:09.834Z,14.00
2022-12-04T02:12:37.176Z,15.00
2022-12-04T02:15:04.561Z,13.00
2022-12-04T02:17:30.986Z,13.00
2022-12-04T02:22:52.081Z,13.50
2022-12-04T02:25:19.459Z,14.00
2022-12-04T02:27:45.917Z,14.50
2022-12-04T02:30:12.322Z,9.00
2022-12-04T02:32:38.751Z,12.00
2022-12-04T02:37:59.912Z,14.00
2022-12-04T02:40:26.377Z,14.00
2022-12-04T02:42:53.707Z,14.67
2022-12-04T02:45:20.958Z,6.00
2022-12-04T02:47:48.264Z,12.33
2022-12-04T02:53:10.622Z,12.00
2022-12-04T02:55:37.992Z,12.67
2022-12-04T02:58:05.288Z,14.00
2022-12-04T03:00:32.563Z,11.00
2022-12-04T03:02:59.965Z,12.00
2022-12-04T03:08:12.401Z,13.67
2022-12-04T03:10:39.817Z,12.00
2022-12-04T03:13:07.139Z,11.00
2022-12-04T03:15:35.442Z,11.20
2022-12-04T03:18:02.764Z,11.00
2022-12-04T03:23:13.423Z,10.00
2022-12-04T03:25:40.761Z,12.00
2022-12-04T03:28:07.197Z,11.00
2022-12-04T03:30:34.483Z,9.67
2022-12-04T03:33:01.814Z,12.00
2022-12-04T03:38:15.813Z,11.67
2022-12-04T03:40:42.220Z,11.00
2022-12-04T03:43:08.652Z,10.00
2022-12-04T03:45:35.934Z,12.00
2022-12-04T03:48:03.239Z,12.33
2022-12-04T03:53:25.315Z,11.00
2022-12-04T03:55:52.565Z,9.00
2022-12-04T03:58:19.833Z,12.00
2022-12-04T04:00:47.069Z,11.33
2022-12-04T04:03:13.546Z,11.00
2022-12-04T04:08:34.946Z,11.00
2022-12-04T04:11:03.276Z,10.00
2022-12-04T04:13:30.508Z,10.33
2022-12-04T04:15:57.800Z,11.00
2022-12-04T04:18:25.083Z,12.00
2022-12-04T04:23:47.898Z,8.00
2022-12-04T04:26:14.388Z,9.00
2022-12-04T04:28:41.665Z,12.00
2022-12-04T04:31:09.014Z,10.00
2022-12-04T04:33:35.532Z,10.50
2022-12-04T04:36:01.938Z,10.50
2022-12-04T04:38:28.411Z,9.00
2022-12-04T04:40:55.688Z,11.33
2022-12-04T04:43:22.993Z,12.00
2022-12-04T04:45:50.264Z,11.67
2022-12-04T04:48:17.502Z,10.00
2022-12-04T04:53:28.623Z,11.00
2022-12-04T04:55:55.904Z,12.00
2022-12-04T04:58:23.186Z,10.33
2022-12-04T05:00:49.590Z,11.00
2022-12-04T05:03:17.017Z,10.33
2022-12-04T05:05:44.355Z,11.00
2022-12-04T05:08:12.693Z,11.00
2022-12-04T05:10:40.008Z,10.00
2022-12-04T05:13:07.256Z,10.33
2022-12-04T05:15:34.573Z,11.67
2022-12-04T05:18:04.504Z,10.86
2022-12-04T05:20:31.741Z,10.67
2022-12-04T05:23:00.078Z,10.80
2022-12-04T05:25:27.353Z,11.00
2022-12-04T05:27:53.804Z,10.00
2022-12-04T05:30:22.104Z,9.40
2022-12-04T05:32:49.387Z,9.33
2022-12-04T05:35:15.792Z,10.00
2022-12-04T05:37:43.121Z,12.00
2022-12-04T05:40:10.384Z,11.00
2022-12-04T05:42:37.665Z,13.67
2022-12-04T05:45:04.110Z,12.00
2022-12-04T05:47:30.582Z,33.00
2022-12-04T05:49:57.271Z,24.50
2022-12-04T05:52:24.939Z,23.00
2022-12-04T05:54:52.382Z,24.00
2022-12-04T05:57:18.845Z,23.00
2022-12-04T05:59:46.252Z,19.00
2022-12-04T06:02:12.809Z,17.50
2022-12-04T06:04:39.303Z,21.50
2022-12-04T06:07:07.526Z,19.25
2022-12-04T06:09:34.002Z,17.00
2022-12-04T06:12:00.457Z,18.00
2022-12-04T06:14:26.905Z,16.00
2022-12-04T06:16:54.328Z,16.00
2022-12-04T06:19:20.857Z,15.50
2022-12-04T06:21:48.224Z,14.67
2022-12-04T06:27:26.294Z,13.00
2022-12-04T06:29:44.869Z,14.50
2022-12-04T06:32:15.260Z,12.00
2022-12-04T06:34:46.083Z,13.00
2022-12-04T06:37:13.453Z,12.00
2022-12-04T06:39:40.842Z,15.00
2022-12-04T06:42:08.196Z,14.00
2022-12-04T06:44:34.616Z,10.50
2022-12-04T06:47:01.997Z,14.33
2022-12-04T06:49:29.355Z,13.67
2022-12-04T06:51:57.751Z,9.80
2022-12-04T06:57:08.891Z,12.00
2022-12-04T06:59:35.585Z,10.50
2022-12-04T07:02:03.227Z,14.67
2022-12-04T07:04:30.048Z,13.00
2022-12-04T07:06:56.501Z,14.50
2022-12-04T07:12:17.106Z,13.50
2022-12-04T07:14:43.539Z,13.00
2022-12-04T07:17:09.998Z,13.00
2022-12-04T07:19:36.553Z,11.50
2022-12-04T07:22:02.981Z,12.50
2022-12-04T07:27:13.327Z,13.00
2022-12-04T07:29:39.734Z,11.00
2022-12-04T07:32:06.288Z,12.50
2022-12-04T07:34:32.772Z,13.00
2022-12-04T07:37:00.413Z,13.00
2022-12-04T07:42:11.077Z,20.00
2022-12-04T07:44:38.447Z,13.33
2022-12-04T07:47:05.783Z,13.33
2022-12-04T08:07:52.290Z,13.50
2022-12-04T08:10:19.690Z,12.67
2022-12-04T08:12:47.065Z,15.00
2022-12-04T08:15:13.533Z,17.00
2022-12-04T08:17:40.179Z,15.50
2022-12-04T08:20:07.568Z,16.33
2022-12-04T08:22:34.961Z,17.00
2022-12-04T08:25:01.430Z,16.50
2022-12-04T08:27:27.865Z,14.00
2022-12-04T08:29:55.520Z,15.00
2022-12-04T08:32:23.010Z,13.33
2022-12-04T08:34:55.375Z,13.00
2022-12-04T08:37:23.171Z,13.67
2022-12-04T08:39:49.696Z,11.50
2022-12-04T08:42:16.154Z,13.50
2022-12-04T08:44:42.581Z,13.00
2022-12-04T08:47:09.827Z,9.67
2022-12-04T08:49:36.341Z,14.00
2022-12-04T08:52:03.016Z,12.00
2022-12-04T08:54:35.779Z,12.00
2022-12-04T08:57:03.599Z,12.67
2022-12-04T08:59:30.063Z,13.00
2022-12-04T09:01:56.562Z,13.00
2022-12-04T09:04:23.985Z,12.67
2022-12-04T09:06:51.366Z,12.00
2022-12-04T09:09:18.662Z,12.33
2022-12-04T09:11:45.449Z,1.33
2022-12-04T09:14:13.147Z,14.00
2022-12-04T09:16:40.970Z,12.00
2022-12-04T09:19:08.669Z,13.33
2022-12-04T09:21:36.082Z,12.00
2022-12-04T09:24:02.636Z,12.00
2022-12-04T09:26:30.997Z,13.00
2022-12-04T09:28:58.231Z,9.00
2022-12-04T09:31:25.462Z,11.50
2022-12-04T09:33:52.062Z,12.00
2022-12-04T09:36:19.356Z,12.33
2022-12-04T09:38:45.767Z,5.00
2022-12-04T09:41:13.120Z,11.00
2022-12-04T09:43:39.603Z,13.00
2022-12-04T09:46:06.088Z,11.50
2022-12-04T09:48:33.467Z,11.67
2022-12-04T09:51:00.803Z,12.00
2022-12-04T09:53:27.205Z,11.50
2022-12-04T09:55:53.801Z,12.00
2022-12-04T09:58:20.290Z,13.00
2022-12-04T10:00:47.596Z,12.67
2022-12-04T10:03:15.106Z,12.00
2022-12-04T10:05:42.002Z,11.50
2022-12-04T10:08:09.062Z,11.00
2022-12-04T10:10:36.918Z,12.33
2022-12-04T10:13:04.642Z,12.00
2022-12-04T10:15:32.247Z,11.00
2022-12-04T10:17:59.849Z,11.00
2022-12-04T10:20:26.566Z,13.00
2022-12-04T10:22:53.893Z,9.67
2022-12-04T10:25:20.341Z,10.50
2022-12-04T10:27:47.203Z,11.50
2022-12-04T10:30:16.461Z,10.67
2022-12-04T10:32:43.009Z,12.00
2022-12-04T10:35:10.309Z,11.33
2022-12-04T10:37:37.146Z,10.00
2022-12-04T10:40:05.585Z,10.60
2022-12-04T10:42:33.100Z,10.33
2022-12-04T10:45:00.406Z,11.33
2022-12-04T10:47:27.886Z,11.00
2022-12-04T10:49:56.042Z,11.67
2022-12-04T10:52:24.041Z,11.00
2022-12-04T10:54:51.796Z,12.00
2022-12-04T10:57:18.579Z,11.00
2022-12-04T10:59:46.472Z,11.00
2022-12-04T11:02:14.232Z,10.33
2022-12-04T11:04:41.633Z,11.00
2022-12-04T11:07:09.273Z,10.67
2022-12-04T11:09:36.693Z,10.33
2022-12-04T11:12:03.125Z,11.00
2022-12-04T11:14:30.675Z,11.00
2022-12-04T11:16:58.996Z,12.40
2022-12-04T11:19:27.369Z,10.80
2022-12-04T11:21:54.660Z,12.67
2022-12-04T11:24:21.956Z,11.33
2022-12-04T11:26:49.307Z,11.33
2022-12-04T11:29:15.775Z,12.00
2022-12-04T11:31:43.107Z,9.67
2022-12-04T11:34:10.514Z,12.67
2022-12-04T11:36:38.168Z,12.00
2022-12-04T11:39:04.960Z,11.00
2022-12-04T11:41:35.123Z,10.57
2022-12-04T11:44:02.725Z,11.33
2022-12-04T11:46:31.472Z,11.00
2022-12-04T11:49:00.274Z,12.00
2022-12-04T11:51:27.914Z,11.00
2022-12-04T11:53:55.268Z,11.33
2022-12-04T11:56:21.719Z,11.00
2022-12-04T11:58:48.122Z,12.50
2022-12-04T12:01:15.387Z,10.67
2022-12-04T12:03:42.961Z,10.33
2022-12-04T12:06:10.556Z,11.33
2022-12-04T12:08:37.802Z,12.00
2022-12-04T12:11:04.298Z,12.00
2022-12-04T12:13:30.761Z,10.00
2022-12-04T12:15:57.183Z,11.00
2022-12-04T12:18:23.605Z,11.00
2022-12-04T12:20:50.015Z,12.00
2022-12-04T12:23:16.449Z,12.00
2022-12-04T12:25:48.812Z,11.00
2022-12-04T12:28:18.269Z,11.00
2022-12-04T12:30:44.936Z,11.00
2022-12-04T12:33:11.507Z,14.00
2022-12-04T12:35:37.994Z,14.50
2022-12-04T12:38:05.405Z,14.00
2022-12-04T12:40:32.806Z,13.00
2022-12-04T12:42:59.325Z,12.00
2022-12-04T12:45:26.751Z,11.33
2022-12-04T12:47:54.002Z,11.00
2022-12-04T12:50:20.674Z,22.00
2022-12-04T12:52:47.126Z,18.50
2022-12-04T12:55:14.492Z,17.50
2022-12-04T12:57:40.969Z,16.50
2022-12-04T13:00:08.376Z,17.67
2022-12-04T13:02:35.769Z,15.33
2022-12-04T13:05:03.303Z,12.67
2022-12-04T13:07:30.753Z,14.00
2022-12-04T13:09:58.456Z,12.33
2022-12-04T13:12:25.289Z,9.50
2022-12-04T13:14:52.649Z,13.67
2022-12-04T13:17:19.093Z,14.00
2022-12-04T13:19:46.448Z,12.67
2022-12-04T13:22:13.802Z,12.33
2022-12-04T13:24:42.119Z,10.60
2022-12-04T13:27:08.548Z,10.50
2022-12-04T13:29:35.795Z,11.67
2022-12-04T13:32:02.349Z,10.00
2022-12-04T13:34:29.707Z,11.67
2022-12-04T13:36:59.654Z,9.86
2022-12-04T13:39:26.132Z,11.50
2022-12-04T13:41:54.403Z,9.80
2022-12-04T13:44:22.713Z,8.40
2022-12-04T13:46:51.066Z,10.60
2022-12-04T13:49:17.534Z,9.00
2022-12-04T13:51:44.773Z,12.00
2022-12-04T13:54:13.063Z,9.00
2022-12-04T13:56:41.346Z,10.40
2022-12-04T13:59:07.758Z,6.00
2022-12-04T14:01:36.231Z,12.00
2022-12-04T14:04:05.559Z,10.50
2022-12-04T14:06:33.920Z,12.00
2022-12-04T14:09:01.163Z,11.00
2022-12-04T14:11:27.647Z,10.00
2022-12-04T14:13:56.848Z,8.50
2022-12-04T14:16:23.364Z,8.00
2022-12-04T14:18:49.843Z,7.00
2022-12-04T14:21:16.279Z,8.00
2022-12-04T14:23:44.535Z,7.80
2022-12-04T14:26:11.024Z,8.00
2022-12-04T14:28:42.271Z,8.17
2022-12-04T14:31:10.911Z,9.40
2022-12-04T14:33:37.472Z,9.50
2022-12-04T14:36:06.658Z,8.33
2022-12-04T14:38:33.089Z,9.00
2022-12-04T14:40:59.545Z,10.00
2022-12-04T14:43:25.904Z,4.33
2022-12-04T14:45:52.310Z,7.33
2022-12-04T14:48:18.780Z,8.00
2022-12-04T14:50:45.132Z,4.33
2022-12-04T14:53:12.458Z,7.50
2022-12-04T14:55:38.868Z,12.67
2022-12-04T14:58:06.279Z,23.00
2022-12-04T15:00:32.750Z,18.00
2022-12-04T15:02:59.348Z,19.00
2022-12-04T15:05:25.845Z,17.00
2022-12-04T15:07:52.379Z,15.00
2022-12-04T15:10:18.937Z,15.00
2022-12-04T15:12:45.384Z,14.00
2022-12-04T15:15:11.840Z,12.00
2022-12-04T15:17:39.192Z,13.33
2022-12-04T15:20:06.591Z,14.00
2022-12-04T15:22:33.883Z,10.33
2022-12-04T15:25:00.315Z,13.00
2022-12-04T15:27:31.934Z,13.00
2022-12-04T15:29:58.728Z,13.00
2022-12-04T15:32:25.150Z,12.50
2022-12-04T15:34:51.583Z,13.00
2022-12-04T15:37:18.955Z,12.33
2022-12-04T15:39:46.303Z,11.67
2022-12-04T15:42:13.613Z,10.00
2022-12-04T15:44:40.894Z,11.00
2022-12-04T15:47:08.120Z,10.33
2022-12-04T15:49:35.456Z,11.33
2022-12-04T15:52:03.859Z,11.20
2022-12-04T15:54:31.190Z,12.67
2022-12-04T15:56:58.458Z,12.00
2022-12-04T15:59:25.716Z,12.00
2022-12-04T16:01:53.050Z,9.33
2022-12-04T16:04:19.688Z,9.50
2022-12-04T16:06:46.994Z,11.00
2022-12-04T16:09:13.585Z,10.00
2022-12-04T16:11:40.849Z,10.33
2022-12-04T16:14:07.272Z,11.00
2022-12-04T16:16:34.518Z,10.00
2022-12-04T16:19:00.991Z,8.50
2022-12-04T16:21:27.523Z,10.00
2022-12-04T16:26:40.700Z,8.50
2022-12-04T16:29:07.146Z,9.00
2022-12-04T16:31:33.919Z,7.00
2022-12-04T16:34:02.342Z,10.80
2022-12-04T16:36:30.727Z,9.00
2022-12-04T16:41:53.750Z,8.40
2022-12-04T16:44:21.018Z,11.00
2022-12-04T16:46:48.356Z,11.00
2022-12-04T16:49:15.011Z,10.00
2022-12-04T16:51:41.501Z,10.00
2022-12-04T16:56:55.774Z,10.00
2022-12-04T16:59:24.048Z,8.80
2022-12-04T17:01:51.374Z,10.33
2022-12-04T17:04:17.948Z,9.00
2022-12-04T17:06:46.335Z,9.60
2022-12-04T17:11:58.579Z,11.67
2022-12-04T17:14:25.901Z,11.00
2022-12-04T17:16:52.420Z,10.50
2022-12-04T17:19:18.955Z,11.00
2022-12-04T17:21:45.506Z,11.00
2022-12-04T17:27:08.875Z,11.33
2022-12-04T17:29:37.288Z,11.80
2022-12-04T17:32:04.650Z,13.33
2022-12-04T17:34:32.031Z,12.67
2022-12-04T17:36:59.283Z,11.00
2022-12-04T17:42:11.481Z,11.00
2022-12-04T17:44:37.943Z,10.50
2022-12-04T17:47:07.298Z,8.50
2022-12-04T17:49:33.901Z,9.00
2022-12-04T17:52:03.090Z,8.50
2022-12-04T17:57:26.394Z,9.50
2022-12-04T17:59:52.833Z,11.00
2022-12-04T18:02:19.267Z,12.00
2022-12-04T18:04:46.510Z,12.33
2022-12-04T18:07:13.887Z,17.00
2022-12-04T18:12:34.958Z,11.00
2022-12-04T18:15:03.293Z,13.00
2022-12-04T18:17:31.631Z,12.20
2022-12-04T18:20:03.944Z,21.00
2022-12-04T18:22:31.277Z,20.00
2022-12-04T18:27:51.864Z,18.00
2022-12-04T18:30:19.278Z,14.33
2022-12-04T18:32:45.712Z,16.00
2022-12-04T18:35:13.146Z,15.00
2022-12-04T18:37:40.865Z,14.33
2022-12-04T18:43:02.141Z,7.50
2022-12-04T18:45:28.802Z,12.00
2022-12-04T18:47:56.125Z,10.33
2022-12-04T18:50:22.827Z,12.50
2022-12-04T18:52:56.871Z,13.33
2022-12-04T18:58:19.475Z,11.00
2022-12-04T19:00:47.854Z,9.40
2022-12-04T19:03:15.249Z,9.67
2022-12-04T19:05:42.724Z,10.00
2022-12-04T19:08:10.054Z,9.67
2022-12-04T19:13:24.325Z,9.00
2022-12-04T19:15:50.729Z,6.00
2022-12-04T19:18:18.015Z,10.67
2022-12-04T19:20:44.509Z,8.00
2022-12-04T19:23:11.004Z,7.50
2022-12-04T19:28:23.486Z,7.50
2022-12-04T19:30:49.966Z,8.00
2022-12-04T19:33:16.440Z,7.50
2022-12-04T19:35:44.829Z,9.20
2022-12-04T19:38:11.502Z,9.00
2022-12-04T19:43:34.077Z,9.60
2022-12-04T19:46:00.909Z,8.00
2022-12-04T19:48:30.207Z,9.00
2022-12-04T19:50:56.747Z,18.00
2022-12-04T19:53:23.249Z,22.50
2022-12-04T19:58:43.645Z,16.00
2022-12-04T20:01:10.214Z,14.00
2022-12-04T20:03:36.798Z,14.00
2022-12-04T20:06:03.357Z,14.00
2022-12-04T20:08:29.840Z,12.50
2022-12-04T20:13:40.389Z,13.00
2022-12-04T20:16:07.818Z,13.00
2022-12-04T20:18:34.715Z,12.50
2022-12-04T20:21:02.132Z,14.00
2022-12-04T20:23:32.126Z,10.29
2022-12-04T20:25:59.475Z,11.33
2022-12-04T20:28:27.086Z,11.33
2022-12-04T20:30:53.633Z,12.50
2022-12-04T20:33:20.971Z,13.00
2022-12-04T20:35:48.339Z,12.00
2022-12-04T20:38:14.791Z,11.50
2022-12-04T20:40:41.295Z,11.00
2022-12-04T20:43:08.611Z,10.67
2022-12-04T20:45:35.021Z,11.00
2022-12-04T20:48:02.895Z,11.00
2022-12-04T20:50:30.333Z,11.33
2022-12-04T20:52:56.842Z,10.00
2022-12-04T20:55:24.166Z,12.00
2022-12-04T20:57:50.607Z,5.00
2022-12-04T21:00:19.912Z,10.60
2022-12-04T21:02:46.454Z,11.00
2022-12-04T21:05:13.738Z,10.67
2022-12-04T21:07:41.133Z,11.67
2022-12-04T21:10:08.441Z,10.33
2022-12-04T21:12:39.860Z,9.50
2022-12-04T21:15:12.129Z,9.50
2022-12-04T21:17:39.458Z,11.33
2022-12-04T21:20:08.102Z,10.33
2022-12-04T21:22:35.695Z,10.00
2022-12-04T21:25:02.993Z,11.00
2022-12-04T21:27:30.233Z,10.67
2022-12-04T21:29:57.726Z,10.00
2022-12-04T21:32:26.241Z,9.80
2022-12-04T21:34:53.518Z,11.33
2022-12-04T21:37:21.785Z,8.80
2022-12-04T21:39:49.137Z,10.33
2022-12-04T21:42:15.635Z,10.00
2022-12-04T21:44:42.074Z,10.50
2022-12-04T21:47:08.576Z,8.00
2022-12-04T21:49:36.859Z,10.80
2022-12-04T21:52:03.341Z,10.00
2022-12-04T21:54:30.592Z,10.33
2022-12-04T21:56:57.936Z,8.33
2022-12-04T22:02:12.130Z,10.71
2022-12-04T22:04:38.539Z,9.50
2022-12-04T22:07:06.892Z,10.00
2022-12-04T22:09:34.200Z,10.00
2022-12-04T22:12:00.953Z,10.00
2022-12-04T22:17:23.270Z,10.50
2022-12-04T22:19:52.481Z,10.00
2022-12-04T22:22:19.791Z,11.00
2022-12-04T22:24:46.224Z,9.50
2022-12-04T22:27:15.420Z,10.33
2022-12-04T22:32:26.071Z,11.00
2022-12-04T22:34:52.551Z,10.50
2022-12-04T22:37:24.028Z,9.00
2022-12-04T22:39:50.441Z,9.50
2022-12-04T22:42:16.935Z,10.00
2022-12-04T22:47:28.041Z,10.00
2022-12-04T22:49:56.506Z,8.60
2022-12-04T22:52:23.149Z,9.00
2022-12-04T22:54:49.592Z,9.00
2022-12-04T22:57:16.000Z,9.00
2022-12-04T23:02:39.197Z,10.33
2022-12-04T23:05:08.552Z,9.00
2022-12-04T23:07:35.053Z,8.00
2022-12-04T23:10:02.328Z,9.67
2022-12-04T23:12:28.756Z,9.00
2022-12-04T23:17:40.970Z,10.00
2022-12-04T23:20:08.210Z,10.00
2022-12-04T23:22:34.701Z,10.50
2022-12-04T23:25:01.167Z,10.00
2022-12-04T23:27:27.706Z,10.00
2022-12-04T23:32:52.801Z,10.00
2022-12-04T23:35:19.253Z,10.00
2022-12-04T23:37:45.680Z,10.00
2022-12-04T23:40:12.106Z,10.00
2022-12-04T23:42:38.509Z,9.50
2022-12-04T23:47:52.562Z,8.60
2022-12-04T23:50:19.023Z,9.00
2022-12-04T23:52:45.413Z,9.00
2022-12-04T23:55:11.875Z,7.00
2022-12-04T23:57:39.116Z,10.25
